sensor_id;sensor_type;location;lat;lon;timestamp;pressure;altitude;pressure_sealevel;temperature;humidity
75146;BME280;63641;46.526;24.612;2023-10-31T00:01:20;97108.88;;;7.16;71.81
75146;BME280;63641;46.526;24.612;2023-10-31T00:03:47;97100.00;;;7.11;71.86
75146;BME280;63641;46.526;24.612;2023-10-31T00:06:13;97097.56;;;7.09;71.84
75146;BME280;63641;46.526;24.612;2023-10-31T00:08:40;97107.00;;;7.12;71.97
75146;BME280;63641;46.526;24.612;2023-10-31T00:11:07;97104.03;;;7.08;71.82
75146;BME280;63641;46.526;24.612;2023-10-31T00:13:34;97095.69;;;7.05;71.99
75146;BME280;63641;46.526;24.612;2023-10-31T00:16:00;97096.19;;;7.01;71.98
75146;BME280;63641;46.526;24.612;2023-10-31T00:18:27;97088.13;;;6.96;71.49
75146;BME280;63641;46.526;24.612;2023-10-31T00:20:54;97084.88;;;6.94;72.18
75146;BME280;63641;46.526;24.612;2023-10-31T00:23:22;97088.66;;;6.98;72.34
75146;BME280;63641;46.526;24.612;2023-10-31T00:25:49;97088.66;;;6.98;72.14
75146;BME280;63641;46.526;24.612;2023-10-31T00:28:15;97083.25;;;6.93;72.24
75146;BME280;63641;46.526;24.612;2023-10-31T00:30:42;97103.47;;;6.96;72.30
75146;BME280;63641;46.526;24.612;2023-10-31T00:33:08;97099.94;;;6.95;72.14
75146;BME280;63641;46.526;24.612;2023-10-31T00:35:35;97091.84;;;6.90;72.18
75146;BME280;63641;46.526;24.612;2023-10-31T00:38:02;97102.34;;;6.92;72.22
75146;BME280;63641;46.526;24.612;2023-10-31T00:40:29;97090.78;;;6.91;72.23
75146;BME280;63641;46.526;24.612;2023-10-31T00:42:55;97091.28;;;6.88;72.24
75146;BME280;63641;46.526;24.612;2023-10-31T00:45:24;97103.69;;;6.89;72.12
75146;BME280;63641;46.526;24.612;2023-10-31T00:47:51;97091.28;;;6.88;72.30
75146;BME280;63641;46.526;24.612;2023-10-31T00:50:18;97091.28;;;6.88;72.12
75146;BME280;63641;46.526;24.612;2023-10-31T00:52:45;97081.59;;;6.82;72.06
75146;BME280;63641;46.526;24.612;2023-10-31T00:55:12;97085.34;;;6.81;72.06
75146;BME280;63641;46.526;24.612;2023-10-31T00:57:39;97079.44;;;6.79;72.22
75146;BME280;63641;46.526;24.612;2023-10-31T01:00:06;97084.25;;;6.77;72.12
75146;BME280;63641;46.526;24.612;2023-10-31T01:02:35;97077.78;;;6.73;72.13
75146;BME280;63641;46.526;24.612;2023-10-31T01:05:02;97055.19;;;6.64;71.92
75146;BME280;63641;46.526;24.612;2023-10-31T01:07:29;97075.09;;;6.73;72.17
75146;BME280;63641;46.526;24.612;2023-10-31T01:09:56;97077.50;;;6.69;72.06
75146;BME280;63641;46.526;24.612;2023-10-31T01:12:23;97076.41;;;6.65;71.88
75146;BME280;63641;46.526;24.612;2023-10-31T01:14:49;97079.91;;;6.61;72.14
75146;BME280;63641;46.526;24.612;2023-10-31T01:17:16;97072.09;;;6.59;72.24
75146;BME280;63641;46.526;24.612;2023-10-31T01:19:43;97068.84;;;6.57;72.24
75146;BME280;63641;46.526;24.612;2023-10-31T01:22:09;97077.44;;;6.54;72.19
75146;BME280;63641;46.526;24.612;2023-10-31T01:24:36;97080.13;;;6.54;72.14
75146;BME280;63641;46.526;24.612;2023-10-31T01:27:03;97075.53;;;6.49;72.10
75146;BME280;63641;46.526;24.612;2023-10-31T01:29:30;97068.00;;;6.46;72.04
75146;BME280;63641;46.526;24.612;2023-10-31T01:31:56;97065.00;;;6.43;72.08
75146;BME280;63641;46.526;24.612;2023-10-31T01:34:28;97066.34;;;6.40;71.95
75146;BME280;63641;46.526;24.612;2023-10-31T01:36:55;97063.34;;;6.37;72.10
75146;BME280;63641;46.526;24.612;2023-10-31T01:39:22;97064.72;;;6.34;72.14
75146;BME280;63641;46.526;24.612;2023-10-31T01:41:49;97064.13;;;6.27;71.78
75146;BME280;63641;46.526;24.612;2023-10-31T01:44:15;97058.72;;;6.22;72.18
75146;BME280;63641;46.526;24.612;2023-10-31T01:46:42;97054.91;;;6.18;72.17
75146;BME280;63641;46.526;24.612;2023-10-31T01:49:09;97053.59;;;6.15;72.09
75146;BME280;63641;46.526;24.612;2023-10-31T01:51:35;97050.03;;;6.10;72.06
75146;BME280;63641;46.526;24.612;2023-10-31T01:54:02;97049.78;;;6.11;72.19
75146;BME280;63641;46.526;24.612;2023-10-31T01:56:29;97051.66;;;6.11;72.16
75146;BME280;63641;46.526;24.612;2023-10-31T01:58:55;97056.50;;;6.09;72.25
75146;BME280;63641;46.526;24.612;2023-10-31T02:01:22;97048.69;;;6.07;72.32
75146;BME280;63641;46.526;24.612;2023-10-31T02:03:49;97039.00;;;6.01;72.20
75146;BME280;63641;46.526;24.612;2023-10-31T02:06:16;97040.31;;;5.98;71.99
75146;BME280;63641;46.526;24.612;2023-10-31T02:08:43;97044.31;;;5.96;72.13
75146;BME280;63641;46.526;24.612;2023-10-31T02:11:09;97045.09;;;5.96;72.26
75146;BME280;63641;46.526;24.612;2023-10-31T02:13:37;97039.44;;;5.93;72.32
75146;BME280;63641;46.526;24.612;2023-10-31T02:16:04;97041.84;;;5.89;72.20
75146;BME280;63641;46.526;24.612;2023-10-31T02:18:31;97032.13;;;5.83;72.28
75146;BME280;63641;46.526;24.612;2023-10-31T02:20:59;97031.84;;;5.85;72.62
75146;BME280;63641;46.526;24.612;2023-10-31T02:23:26;97035.03;;;5.81;72.50
75146;BME280;63641;46.526;24.612;2023-10-31T02:25:52;97023.50;;;5.81;72.40
75146;BME280;63641;46.526;24.612;2023-10-31T02:28:19;97014.34;;;5.77;72.66
75146;BME280;63641;46.526;24.612;2023-10-31T02:30:46;97024.06;;;5.83;72.70
75146;BME280;63641;46.526;24.612;2023-10-31T02:33:12;97024.84;;;5.78;72.66
75146;BME280;63641;46.526;24.612;2023-10-31T02:35:39;97031.53;;;5.76;72.72
75146;BME280;63641;46.526;24.612;2023-10-31T02:38:06;97023.19;;;5.77;72.84
75146;BME280;63641;46.526;24.612;2023-10-31T02:40:32;97029.13;;;5.74;72.79
75146;BME280;63641;46.526;24.612;2023-10-31T02:42:59;97025.88;;;5.72;72.76
75146;BME280;63641;46.526;24.612;2023-10-31T02:45:26;97020.75;;;5.71;72.97
75146;BME280;63641;46.526;24.612;2023-10-31T02:47:53;97014.81;;;5.69;72.93
75146;BME280;63641;46.526;24.612;2023-10-31T02:50:19;97012.13;;;5.64;72.89
75146;BME280;63641;46.526;24.612;2023-10-31T02:52:46;97015.59;;;5.64;73.21
75146;BME280;63641;46.526;24.612;2023-10-31T02:55:13;97013.16;;;5.63;73.15
75146;BME280;63641;46.526;24.612;2023-10-31T02:57:39;97022.28;;;5.62;73.12
75146;BME280;63641;46.526;24.612;2023-10-31T03:00:06;97002.81;;;5.44;73.09
75146;BME280;63641;46.526;24.612;2023-10-31T03:02:33;97013.84;;;5.48;73.05
75146;BME280;63641;46.526;24.612;2023-10-31T03:05:00;97019.28;;;5.53;72.90
75146;BME280;63641;46.526;24.612;2023-10-31T03:07:27;97014.16;;;5.51;73.14
75146;BME280;63641;46.526;24.612;2023-10-31T03:09:54;97016.28;;;5.49;72.90
75146;BME280;63641;46.526;24.612;2023-10-31T03:12:20;97004.19;;;5.47;73.02
75146;BME280;63641;46.526;24.612;2023-10-31T03:14:47;97004.16;;;5.42;73.11
75146;BME280;63641;46.526;24.612;2023-10-31T03:17:14;96996.91;;;5.42;73.08
75146;BME280;63641;46.526;24.612;2023-10-31T03:19:41;96989.34;;;5.34;73.16
75146;BME280;63641;46.526;24.612;2023-10-31T03:22:08;96995.25;;;5.36;73.07
75146;BME280;63641;46.526;24.612;2023-10-31T03:24:34;96989.34;;;5.34;73.34
75146;BME280;63641;46.526;24.612;2023-10-31T03:27:01;96996.03;;;5.31;73.13
75146;BME280;63641;46.526;24.612;2023-10-31T03:29:27;96980.13;;;5.25;73.36
75146;BME280;63641;46.526;24.612;2023-10-31T03:31:54;96986.06;;;5.27;73.43
75146;BME280;63641;46.526;24.612;2023-10-31T03:34:21;96970.69;;;5.17;73.23
75146;BME280;63641;46.526;24.612;2023-10-31T03:36:47;96976.34;;;5.21;73.61
75146;BME280;63641;46.526;24.612;2023-10-31T03:39:14;96978.47;;;5.19;73.62
75146;BME280;63641;46.526;24.612;2023-10-31T03:41:41;96973.38;;;5.17;73.51
75146;BME280;63641;46.526;24.612;2023-10-31T03:44:08;96983.28;;;5.17;73.61
75146;BME280;63641;46.526;24.612;2023-10-31T03:46:35;96965.00;;;5.14;73.86
75146;BME280;63641;46.526;24.612;2023-10-31T03:49:02;96967.69;;;5.14;73.87
75146;BME280;63641;46.526;24.612;2023-10-31T03:51:29;96963.13;;;5.14;73.62
75146;BME280;63641;46.526;24.612;2023-10-31T03:53:56;96952.91;;;5.11;73.81
75146;BME280;63641;46.526;24.612;2023-10-31T03:56:23;96949.41;;;5.05;74.08
75146;BME280;63641;46.526;24.612;2023-10-31T03:58:49;96954.78;;;5.11;73.92
75146;BME280;63641;46.526;24.612;2023-10-31T04:01:16;96954.78;;;5.11;73.94
75146;BME280;63641;46.526;24.612;2023-10-31T04:03:43;96949.94;;;5.07;74.14
75146;BME280;63641;46.526;24.612;2023-10-31T04:06:10;96949.94;;;5.07;74.00
75146;BME280;63641;46.526;24.612;2023-10-31T04:08:37;96950.75;;;5.08;74.09
75146;BME280;63641;46.526;24.612;2023-10-31T04:11:04;96942.44;;;5.04;73.94
75146;BME280;63641;46.526;24.612;2023-10-31T04:13:30;96941.25;;;4.95;73.98
75146;BME280;63641;46.526;24.612;2023-10-31T04:15:57;96939.38;;;4.96;73.66
75146;BME280;63641;46.526;24.612;2023-10-31T04:18:24;96949.28;;;4.95;73.80
75146;BME280;63641;46.526;24.612;2023-10-31T04:20:50;96951.09;;;4.90;73.97
75146;BME280;63641;46.526;24.612;2023-10-31T04:23:17;96952.69;;;4.85;73.96
75146;BME280;63641;46.526;24.612;2023-10-31T04:25:44;96946.72;;;4.78;73.93
75146;BME280;63641;46.526;24.612;2023-10-31T04:28:11;96940.00;;;4.76;74.29
75146;BME280;63641;46.526;24.612;2023-10-31T04:30:39;96953.44;;;4.81;74.26
75146;BME280;63641;46.526;24.612;2023-10-31T04:33:06;96949.69;;;4.82;74.24
75146;BME280;63641;46.526;24.612;2023-10-31T04:35:33;96947.28;;;4.80;74.31
75146;BME280;63641;46.526;24.612;2023-10-31T04:37:59;96962.50;;;4.75;74.07
75146;BME280;63641;46.526;24.612;2023-10-31T04:40:26;96945.16;;;4.55;74.08
75146;BME280;63641;46.526;24.612;2023-10-31T04:42:55;96957.09;;;4.70;74.29
75146;BME280;63641;46.526;24.612;2023-10-31T04:45:22;96953.88;;;4.68;74.53
75146;BME280;63641;46.526;24.612;2023-10-31T04:47:49;96953.78;;;4.63;74.38
75146;BME280;63641;46.526;24.612;2023-10-31T04:50:16;96956.94;;;4.54;74.63
75146;BME280;63641;46.526;24.612;2023-10-31T04:52:42;96964.53;;;4.63;74.61
75146;BME280;63641;46.526;24.612;2023-10-31T04:55:09;96964.22;;;4.59;74.34
75146;BME280;63641;46.526;24.612;2023-10-31T04:57:36;96963.72;;;4.62;74.60
75146;BME280;63641;46.526;24.612;2023-10-31T05:00:03;96940.25;;;4.47;74.54
75146;BME280;63641;46.526;24.612;2023-10-31T05:02:34;96953.25;;;4.60;74.59
75146;BME280;63641;46.526;24.612;2023-10-31T05:05:01;96955.38;;;4.58;74.48
75146;BME280;63641;46.526;24.612;2023-10-31T05:07:28;96972.00;;;4.60;74.49
75146;BME280;63641;46.526;24.612;2023-10-31T05:09:55;96962.28;;;4.54;74.88
75146;BME280;63641;46.526;24.612;2023-10-31T05:12:22;96972.56;;;4.63;75.01
75146;BME280;63641;46.526;24.612;2023-10-31T05:14:49;96965.81;;;4.60;75.00
75146;BME280;63641;46.526;24.612;2023-10-31T05:17:15;96975.84;;;4.70;74.74
75146;BME280;63641;46.526;24.612;2023-10-31T05:19:42;96971.06;;;4.72;75.02
75146;BME280;63641;46.526;24.612;2023-10-31T05:22:09;96969.50;;;4.76;74.95
75146;BME280;63641;46.526;24.612;2023-10-31T05:24:36;96963.81;;;4.72;74.91
75146;BME280;63641;46.526;24.612;2023-10-31T05:27:03;96970.00;;;4.73;74.95
75146;BME280;63641;46.526;24.612;2023-10-31T05:29:30;96965.44;;;4.73;74.99
75146;BME280;63641;46.526;24.612;2023-10-31T05:31:56;96968.69;;;4.75;74.92
75146;BME280;63641;46.526;24.612;2023-10-31T05:34:23;96967.31;;;4.73;75.27
75146;BME280;63641;46.526;24.612;2023-10-31T05:36:50;96961.38;;;4.71;75.20
75146;BME280;63641;46.526;24.612;2023-10-31T05:39:16;96973.22;;;4.75;75.29
75146;BME280;63641;46.526;24.612;2023-10-31T05:41:43;96984.53;;;4.82;75.43
75146;BME280;63641;46.526;24.612;2023-10-31T05:44:10;96986.50;;;4.87;75.16
75146;BME280;63641;46.526;24.612;2023-10-31T05:46:38;96987.63;;;4.96;75.72
75146;BME280;63641;46.526;24.612;2023-10-31T05:49:09;96990.63;;;4.99;75.54
75146;BME280;63641;46.526;24.612;2023-10-31T05:51:36;96984.50;;;5.04;75.58
75146;BME280;63641;46.526;24.612;2023-10-31T05:54:04;96989.13;;;5.08;75.48
75146;BME280;63641;46.526;24.612;2023-10-31T05:56:33;96982.66;;;5.04;75.45
75146;BME280;63641;46.526;24.612;2023-10-31T05:58:59;96969.78;;;5.06;75.60
75146;BME280;63641;46.526;24.612;2023-10-31T06:01:26;96966.31;;;5.11;75.55
75146;BME280;63641;46.526;24.612;2023-10-31T06:03:53;96962.53;;;5.07;75.46
75146;BME280;63641;46.526;24.612;2023-10-31T06:06:20;96980.59;;;5.17;75.71
75146;BME280;63641;46.526;24.612;2023-10-31T06:08:47;96978.47;;;5.19;75.71
75146;BME280;63641;46.526;24.612;2023-10-31T06:11:14;96974.72;;;5.20;75.92
75146;BME280;63641;46.526;24.612;2023-10-31T06:13:42;96985.28;;;5.31;76.00
75146;BME280;63641;46.526;24.612;2023-10-31T06:16:09;96987.75;;;5.38;76.03
75146;BME280;63641;46.526;24.612;2023-10-31T06:18:38;96987.78;;;5.43;76.21
75146;BME280;63641;46.526;24.612;2023-10-31T06:21:05;96968.41;;;5.36;76.05
75146;BME280;63641;46.526;24.612;2023-10-31T06:23:31;96975.78;;;5.51;76.07
75146;BME280;63641;46.526;24.612;2023-10-31T06:25:58;96965.91;;;5.56;76.26
75146;BME280;63641;46.526;24.612;2023-10-31T06:28:25;96963.50;;;5.60;76.06
75146;BME280;63641;46.526;24.612;2023-10-31T06:30:52;96953.38;;;5.67;76.67
75146;BME280;63641;46.526;24.612;2023-10-31T06:33:18;96948.72;;;5.95;76.34
75146;BME280;63641;46.526;24.612;2023-10-31T06:35:45;96947.22;;;6.24;76.14
75146;BME280;63641;46.526;24.612;2023-10-31T06:38:12;96936.84;;;6.59;75.77
75146;BME280;63641;46.526;24.612;2023-10-31T06:40:39;96927.25;;;6.83;75.54
75146;BME280;63641;46.526;24.612;2023-10-31T06:43:06;96926.44;;;7.03;75.08
75146;BME280;63641;46.526;24.612;2023-10-31T06:45:32;96922.44;;;7.16;74.87
75146;BME280;63641;46.526;24.612;2023-10-31T06:47:59;96915.97;;;7.22;74.87
75146;BME280;63641;46.526;24.612;2023-10-31T06:50:26;96915.44;;;7.30;75.09
75146;BME280;63641;46.526;24.612;2023-10-31T06:52:53;96901.44;;;7.33;74.99
75146;BME280;63641;46.526;24.612;2023-10-31T06:55:20;96892.81;;;7.36;75.12
75146;BME280;63641;46.526;24.612;2023-10-31T06:57:46;96902.75;;;7.46;75.04
75146;BME280;63641;46.526;24.612;2023-10-31T07:00:16;96902.75;;;7.51;75.36
75146;BME280;63641;46.526;24.612;2023-10-31T07:02:43;96893.31;;;7.54;75.36
75146;BME280;63641;46.526;24.612;2023-10-31T07:05:10;96880.94;;;7.53;75.42
75146;BME280;63641;46.526;24.612;2023-10-31T07:07:36;96885.78;;;7.66;75.42
75146;BME280;63641;46.526;24.612;2023-10-31T07:10:03;96858.34;;;7.59;75.86
75146;BME280;63641;46.526;24.612;2023-10-31T07:12:30;96860.19;;;7.73;75.68
75146;BME280;63641;46.526;24.612;2023-10-31T07:14:58;96866.88;;;7.81;75.53
75146;BME280;63641;46.526;24.612;2023-10-31T07:17:25;96858.78;;;7.86;75.55
75146;BME280;63641;46.526;24.612;2023-10-31T07:19:52;96866.81;;;7.96;75.59
75146;BME280;63641;46.526;24.612;2023-10-31T07:22:19;96857.91;;;8.01;75.55
75146;BME280;63641;46.526;24.612;2023-10-31T07:24:46;96864.31;;;8.15;75.68
75146;BME280;63641;46.526;24.612;2023-10-31T07:27:12;96863.97;;;8.27;75.74
75146;BME280;63641;46.526;24.612;2023-10-31T07:29:40;96854.78;;;8.38;75.63
75146;BME280;63641;46.526;24.612;2023-10-31T07:32:08;96849.88;;;8.51;75.44
75146;BME280;63641;46.526;24.612;2023-10-31T07:34:40;96842.75;;;8.65;75.64
75146;BME280;63641;46.526;24.612;2023-10-31T07:37:06;96839.19;;;8.75;75.56
75146;BME280;63641;46.526;24.612;2023-10-31T07:39:33;96844.69;;;8.99;75.27
75146;BME280;63641;46.526;24.612;2023-10-31T07:42:00;96842.59;;;9.19;74.96
75146;BME280;63641;46.526;24.612;2023-10-31T07:44:26;96855.06;;;9.44;74.64
75146;BME280;63641;46.526;24.612;2023-10-31T07:46:53;96840.28;;;9.61;74.39
75146;BME280;63641;46.526;24.612;2023-10-31T07:49:20;96848.63;;;9.88;74.09
75146;BME280;63641;46.526;24.612;2023-10-31T07:51:48;96853.50;;;10.10;73.81
75146;BME280;63641;46.526;24.612;2023-10-31T07:54:15;96850.38;;;10.27;73.12
75146;BME280;63641;46.526;24.612;2023-10-31T07:56:43;96852.13;;;10.56;72.32
75146;BME280;63641;46.526;24.612;2023-10-31T07:59:09;96854.66;;;10.85;71.33
75146;BME280;63641;46.526;24.612;2023-10-31T08:01:36;96852.56;;;11.15;70.27
75146;BME280;63641;46.526;24.612;2023-10-31T08:04:03;96858.88;;;11.43;69.06
75146;BME280;63641;46.526;24.612;2023-10-31T08:06:30;96865.94;;;11.71;68.30
75146;BME280;63641;46.526;24.612;2023-10-31T08:08:57;96861.56;;;12.03;67.23
75146;BME280;63641;46.526;24.612;2023-10-31T08:11:23;96870.19;;;12.32;66.19
75146;BME280;63641;46.526;24.612;2023-10-31T08:13:50;96866.31;;;12.61;64.75
75146;BME280;63641;46.526;24.612;2023-10-31T08:16:18;96854.28;;;12.90;63.51
75146;BME280;63641;46.526;24.612;2023-10-31T08:18:46;96851.63;;;13.21;62.33
75146;BME280;63641;46.526;24.612;2023-10-31T08:21:13;96848.97;;;13.52;60.81
75146;BME280;63641;46.526;24.612;2023-10-31T08:23:40;96841.22;;;13.76;59.95
75146;BME280;63641;46.526;24.612;2023-10-31T08:26:07;96843.59;;;14.09;59.11
75146;BME280;63641;46.526;24.612;2023-10-31T08:28:34;96837.91;;;14.37;57.94
75146;BME280;63641;46.526;24.612;2023-10-31T08:31:01;96825.34;;;14.58;56.96
75146;BME280;63641;46.526;24.612;2023-10-31T08:33:27;96821.47;;;14.85;55.80
75146;BME280;63641;46.526;24.612;2023-10-31T08:35:55;96825.13;;;15.15;55.37
75146;BME280;63641;46.526;24.612;2023-10-31T08:38:22;96819.97;;;15.40;53.91
75146;BME280;63641;46.526;24.612;2023-10-31T08:40:58;96798.25;;;15.61;53.49
75146;BME280;63641;46.526;24.612;2023-10-31T08:43:26;96799.78;;;15.88;52.84
75146;BME280;63641;46.526;24.612;2023-10-31T08:45:53;96779.78;;;16.05;51.86
75146;BME280;63641;46.526;24.612;2023-10-31T08:48:20;96780.88;;;16.33;51.05
75146;BME280;63641;46.526;24.612;2023-10-31T08:50:47;96771.22;;;16.57;50.57
75146;BME280;63641;46.526;24.612;2023-10-31T08:53:13;96780.38;;;16.82;49.53
75146;BME280;63641;46.526;24.612;2023-10-31T08:55:40;96781.16;;;17.03;48.59
75146;BME280;63641;46.526;24.612;2023-10-31T08:58:14;96757.53;;;17.20;47.44
75146;BME280;63641;46.526;24.612;2023-10-31T09:00:41;96762.94;;;17.53;46.57
75146;BME280;63641;46.526;24.612;2023-10-31T09:03:08;96766.06;;;17.76;45.97
75146;BME280;63641;46.526;24.612;2023-10-31T09:05:35;96770.41;;;18.01;45.17
75146;BME280;63641;46.526;24.612;2023-10-31T09:08:02;96759.19;;;18.19;44.46
75146;BME280;63641;46.526;24.612;2023-10-31T09:10:29;96750.50;;;18.29;43.79
75146;BME280;63641;46.526;24.612;2023-10-31T09:12:56;96742.72;;;18.43;42.81
75146;BME280;63641;46.526;24.612;2023-10-31T09:15:22;96745.97;;;18.73;42.38
75146;BME280;63641;46.526;24.612;2023-10-31T09:17:49;96738.63;;;18.90;41.84
75146;BME280;63641;46.526;24.612;2023-10-31T09:20:17;96757.13;;;19.09;41.52
75146;BME280;63641;46.526;24.612;2023-10-31T09:22:43;96752.84;;;19.23;41.33
75146;BME280;63641;46.526;24.612;2023-10-31T09:25:10;96746.56;;;19.39;40.54
75146;BME280;63641;46.526;24.612;2023-10-31T09:27:40;96758.44;;;19.59;39.85
75146;BME280;63641;46.526;24.612;2023-10-31T09:30:10;96760.88;;;19.76;39.43
75146;BME280;63641;46.526;24.612;2023-10-31T09:32:37;96744.28;;;19.88;39.29
75146;BME280;63641;46.526;24.612;2023-10-31T09:35:05;96731.34;;;20.05;38.46
75146;BME280;63641;46.526;24.612;2023-10-31T09:37:34;96743.09;;;20.21;37.77
75146;BME280;63641;46.526;24.612;2023-10-31T09:40:01;96740.03;;;20.42;37.30
75146;BME280;63641;46.526;24.612;2023-10-31T09:42:29;96721.75;;;20.49;36.90
75146;BME280;63641;46.526;24.612;2023-10-31T09:44:55;96732.41;;;20.70;36.57
75146;BME280;63641;46.526;24.612;2023-10-31T09:47:22;96712.53;;;20.77;36.38
75146;BME280;63641;46.526;24.612;2023-10-31T09:49:49;96704.19;;;20.93;36.49
75146;BME280;63641;46.526;24.612;2023-10-31T09:52:17;96696.19;;;21.07;35.92
75146;BME280;63641;46.526;24.612;2023-10-31T09:54:44;96696.75;;;21.16;35.84
75146;BME280;63641;46.526;24.612;2023-10-31T09:57:13;96687.91;;;21.27;35.60
75146;BME280;63641;46.526;24.612;2023-10-31T09:59:40;96696.88;;;21.43;35.04
75146;BME280;63641;46.526;24.612;2023-10-31T10:02:07;96694.66;;;21.52;34.74
75146;BME280;63641;46.526;24.612;2023-10-31T10:04:34;96706.25;;;21.65;34.62
75146;BME280;63641;46.526;24.612;2023-10-31T10:07:03;96691.41;;;21.69;34.25
75146;BME280;63641;46.526;24.612;2023-10-31T10:09:30;96691.56;;;21.80;33.42
75146;BME280;63641;46.526;24.612;2023-10-31T10:12:00;96693.25;;;21.88;33.09
75146;BME280;63641;46.526;24.612;2023-10-31T10:14:27;96686.63;;;21.93;32.66
75146;BME280;63641;46.526;24.612;2023-10-31T10:17:00;96680.00;;;21.98;32.34
75146;BME280;63641;46.526;24.612;2023-10-31T10:19:26;96677.75;;;22.03;31.98
75146;BME280;63641;46.526;24.612;2023-10-31T10:21:57;96660.00;;;22.01;32.01
75146;BME280;63641;46.526;24.612;2023-10-31T10:24:24;96671.69;;;22.17;31.94
75146;BME280;63641;46.526;24.612;2023-10-31T10:26:51;96666.22;;;22.21;31.91
75146;BME280;63641;46.526;24.612;2023-10-31T10:29:18;96670.25;;;22.30;31.70
75146;BME280;63641;46.526;24.612;2023-10-31T10:31:45;96660.91;;;22.38;31.46
75146;BME280;63641;46.526;24.612;2023-10-31T10:34:14;96659.84;;;22.47;31.75
75146;BME280;63641;46.526;24.612;2023-10-31T10:36:48;96655.66;;;22.60;32.20
75146;BME280;63641;46.526;24.612;2023-10-31T10:39:22;96657.75;;;22.70;31.75
75146;BME280;63641;46.526;24.612;2023-10-31T10:41:53;96635.78;;;22.77;31.52
75146;BME280;63641;46.526;24.612;2023-10-31T10:44:34;96634.66;;;22.85;31.24
75146;BME280;63641;46.526;24.612;2023-10-31T10:47:03;96625.31;;;22.94;31.08
75146;BME280;63641;46.526;24.612;2023-10-31T10:49:33;96617.94;;;23.05;31.04
75146;BME280;63641;46.526;24.612;2023-10-31T10:52:17;96613.72;;;23.18;30.67
75146;BME280;63641;46.526;24.612;2023-10-31T10:54:52;96607.53;;;23.28;30.52
75146;BME280;63641;46.526;24.612;2023-10-31T10:57:52;96613.56;;;23.45;30.21
75146;BME280;63641;46.526;24.612;2023-10-31T11:00:21;96616.38;;;23.52;29.94
75146;BME280;63641;46.526;24.612;2023-10-31T11:02:52;96606.59;;;23.61;29.52
75146;BME280;63641;46.526;24.612;2023-10-31T11:05:20;96598.75;;;23.67;29.62
75146;BME280;63641;46.526;24.612;2023-10-31T11:07:47;96596.84;;;23.78;29.07
75146;BME280;63641;46.526;24.612;2023-10-31T11:10:16;96583.44;;;23.80;29.04
75146;BME280;63641;46.526;24.612;2023-10-31T11:12:43;96573.63;;;23.86;29.26
75146;BME280;63641;46.526;24.612;2023-10-31T11:15:14;96578.34;;;23.90;29.28
75146;BME280;63641;46.526;24.612;2023-10-31T11:17:45;96558.25;;;23.93;28.88
75146;BME280;63641;46.526;24.612;2023-10-31T11:20:14;96568.16;;;23.97;29.15
75146;BME280;63641;46.526;24.612;2023-10-31T11:22:43;96556.72;;;24.02;29.21
75146;BME280;63641;46.526;24.612;2023-10-31T11:25:17;96559.53;;;24.13;29.03
75146;BME280;63641;46.526;24.612;2023-10-31T11:28:10;96556.81;;;24.20;29.06
75146;BME280;63641;46.526;24.612;2023-10-31T11:30:38;96550.09;;;24.25;28.29
75146;BME280;63641;46.526;24.612;2023-10-31T11:33:05;96530.75;;;24.25;28.21
75146;BME280;63641;46.526;24.612;2023-10-31T11:35:35;96525.63;;;24.23;28.32
75146;BME280;63641;46.526;24.612;2023-10-31T11:38:09;96518.50;;;24.29;28.24
75146;BME280;63641;46.526;24.612;2023-10-31T11:40:58;96512.19;;;24.25;28.17
75146;BME280;63641;46.526;24.612;2023-10-31T11:43:35;96506.28;;;24.27;28.24
75146;BME280;63641;46.526;24.612;2023-10-31T11:46:02;96507.47;;;24.29;28.05
75146;BME280;63641;46.526;24.612;2023-10-31T11:48:47;96493.25;;;24.27;27.99
75146;BME280;63641;46.526;24.612;2023-10-31T11:51:15;96487.31;;;24.22;28.09
75146;BME280;63641;46.526;24.612;2023-10-31T11:53:43;96475.84;;;24.13;27.87
75146;BME280;63641;46.526;24.612;2023-10-31T11:56:11;96482.91;;;24.06;28.08
75146;BME280;63641;46.526;24.612;2023-10-31T11:58:38;96467.50;;;23.98;28.11
75146;BME280;63641;46.526;24.612;2023-10-31T12:01:07;96481.72;;;24.04;27.95
75146;BME280;63641;46.526;24.612;2023-10-31T12:03:41;96466.31;;;24.03;28.12
75146;BME280;63641;46.526;24.612;2023-10-31T12:06:10;96452.47;;;23.96;28.04
75146;BME280;63641;46.526;24.612;2023-10-31T12:08:40;96454.06;;;23.97;27.87
75146;BME280;63641;46.526;24.612;2023-10-31T12:11:16;96459.97;;;23.88;28.34
75146;BME280;63641;46.526;24.612;2023-10-31T12:14:03;96472.16;;;23.80;28.13
75146;BME280;63641;46.526;24.612;2023-10-31T12:16:33;96466.22;;;23.74;28.55
75146;BME280;63641;46.526;24.612;2023-10-31T12:19:02;96461.06;;;23.69;28.81
75146;BME280;63641;46.526;24.612;2023-10-31T12:21:46;96458.66;;;23.64;28.69
75146;BME280;63641;46.526;24.612;2023-10-31T12:24:18;96445.19;;;23.55;28.92
75146;BME280;63641;46.526;24.612;2023-10-31T12:26:46;96438.06;;;23.47;28.88
75146;BME280;63641;46.526;24.612;2023-10-31T12:29:20;96427.72;;;23.30;29.02
75146;BME280;63641;46.526;24.612;2023-10-31T12:31:52;96435.56;;;23.21;28.75
75146;BME280;63641;46.526;24.612;2023-10-31T12:34:21;96415.00;;;23.11;29.15
75146;BME280;63641;46.526;24.612;2023-10-31T12:36:51;96405.09;;;23.03;28.97
75146;BME280;63641;46.526;24.612;2023-10-31T12:39:22;96397.47;;;22.85;29.35
75146;BME280;63641;46.526;24.612;2023-10-31T12:41:49;96409.69;;;22.88;29.43
75146;BME280;63641;46.526;24.612;2023-10-31T12:44:22;96397.84;;;22.80;29.50
75146;BME280;63641;46.526;24.612;2023-10-31T12:46:50;96391.91;;;22.78;29.17
75146;BME280;63641;46.526;24.612;2023-10-31T12:49:19;96400.16;;;22.78;29.60
75146;BME280;63641;46.526;24.612;2023-10-31T12:52:03;96395.03;;;22.77;29.26
75146;BME280;63641;46.526;24.612;2023-10-31T12:54:36;96391.09;;;22.78;29.25
75146;BME280;63641;46.526;24.612;2023-10-31T12:57:07;96384.00;;;22.73;29.32
75146;BME280;63641;46.526;24.612;2023-10-31T12:59:36;96375.28;;;22.67;29.39